createdAt,value
2024-03-23T00:00:50.938Z,9.86
2024-03-23T00:01:50.935Z,9.79
2024-03-23T00:02:50.937Z,9.80
2024-03-23T00:03:50.905Z,9.74
2024-03-23T00:04:50.941Z,9.73
2024-03-23T00:05:50.907Z,9.59
2024-03-23T00:06:51.014Z,9.46
2024-03-23T00:07:50.933Z,9.40
2024-03-23T00:08:51.006Z,9.29
2024-03-23T00:09:50.852Z,9.18
2024-03-23T00:10:50.852Z,9.26
2024-03-23T00:11:50.843Z,9.32
2024-03-23T00:12:50.838Z,9.22
2024-03-23T00:13:50.797Z,9.29
2024-03-23T00:14:50.860Z,9.22
2024-03-23T00:15:50.783Z,9.25
2024-03-23T00:17:50.770Z,9.22
2024-03-23T00:18:50.745Z,9.22
2024-03-23T00:19:50.736Z,9.22
2024-03-23T00:20:50.730Z,9.22
2024-03-23T00:21:50.733Z,9.19
2024-03-23T00:22:50.711Z,9.21
2024-03-23T00:23:50.696Z,9.23
2024-03-23T00:24:50.688Z,9.28
2024-03-23T00:25:50.672Z,9.25
2024-03-23T00:26:50.661Z,9.26
2024-03-23T00:27:50.656Z,9.39
2024-03-23T00:28:50.657Z,9.39
2024-03-23T00:29:50.643Z,9.36
2024-03-23T00:30:50.627Z,9.34
2024-03-23T00:31:50.615Z,9.32
2024-03-23T00:32:50.601Z,9.39
2024-03-23T00:33:50.600Z,9.37
2024-03-23T00:34:50.585Z,9.39
2024-03-23T00:35:50.563Z,9.37
2024-03-23T00:36:50.550Z,9.37
2024-03-23T00:37:50.561Z,9.31
2024-03-23T00:38:50.539Z,9.39
2024-03-23T00:39:50.526Z,9.37
2024-03-23T00:40:50.510Z,9.32
2024-03-23T00:41:50.495Z,9.34
2024-03-23T00:42:50.488Z,9.22
2024-03-23T00:43:50.481Z,9.31
2024-03-23T00:44:50.467Z,9.26
2024-03-23T00:45:50.458Z,9.23
2024-03-23T00:46:50.465Z,9.18
2024-03-23T00:47:50.430Z,9.18
2024-03-23T00:48:50.426Z,9.14
2024-03-23T00:50:50.408Z,9.03
2024-03-23T00:51:50.393Z,9.06
2024-03-23T00:52:50.379Z,8.92
2024-03-23T00:53:50.382Z,8.97
2024-03-23T00:54:50.406Z,8.92
2024-03-23T00:55:50.350Z,8.89
2024-03-23T00:56:50.340Z,8.79
2024-03-23T00:57:50.337Z,8.81
2024-03-23T00:58:50.311Z,8.81
2024-03-23T01:00:52.161Z,8.79
2024-03-23T01:01:50.280Z,8.74
2024-03-23T01:02:50.276Z,8.78
2024-03-23T01:03:50.260Z,8.66
2024-03-23T01:04:50.258Z,8.70
2024-03-23T01:05:50.239Z,8.66
2024-03-23T01:06:50.262Z,8.63
2024-03-23T01:07:50.257Z,8.61
2024-03-23T01:08:50.206Z,8.53
2024-03-23T01:09:50.211Z,8.52
2024-03-23T01:10:50.186Z,8.48
2024-03-23T01:11:50.217Z,8.46
2024-03-23T01:12:50.156Z,8.48
2024-03-23T01:13:50.141Z,8.46
2024-03-23T01:14:50.133Z,8.52
2024-03-23T01:15:50.133Z,8.45
2024-03-23T01:16:50.120Z,8.48
2024-03-23T01:17:50.102Z,8.38
2024-03-23T01:19:50.098Z,8.44
2024-03-23T01:20:50.076Z,8.44
2024-03-23T01:21:50.064Z,8.37
2024-03-23T01:22:50.050Z,8.46
2024-03-23T01:23:50.041Z,8.48
2024-03-23T01:24:50.023Z,8.42
2024-03-23T01:25:50.071Z,8.51
2024-03-23T01:26:50.009Z,8.45
2024-03-23T01:27:49.996Z,8.49
2024-03-23T01:28:49.972Z,8.46
2024-03-23T01:29:49.962Z,8.44
2024-03-23T01:30:49.954Z,8.31
2024-03-23T01:31:49.942Z,8.37
2024-03-23T01:32:49.948Z,8.31
2024-03-23T01:34:49.912Z,8.26
2024-03-23T01:35:49.902Z,8.20
2024-03-23T01:36:49.893Z,8.24
2024-03-23T01:37:49.898Z,8.16
2024-03-23T01:38:49.872Z,8.23
2024-03-23T01:39:49.853Z,8.20
2024-03-23T01:40:49.845Z,8.20
2024-03-23T01:41:49.839Z,8.13
2024-03-23T01:42:49.832Z,8.23
2024-03-23T01:43:49.809Z,8.27
2024-03-23T01:44:49.793Z,8.31
2024-03-23T01:45:49.783Z,8.27
2024-03-23T01:46:49.773Z,8.31
2024-03-23T01:47:49.769Z,8.36
2024-03-23T01:48:49.753Z,8.33
2024-03-23T01:49:49.743Z,8.34
2024-03-23T01:50:52.352Z,8.36
2024-03-23T01:51:49.716Z,8.44
2024-03-23T01:52:49.709Z,8.41
2024-03-23T01:54:49.680Z,8.49
2024-03-23T01:55:49.678Z,8.42
2024-03-23T01:56:49.714Z,8.55
2024-03-23T01:57:49.663Z,8.52
2024-03-23T01:59:49.627Z,8.49
2024-03-23T02:00:49.618Z,8.63
2024-03-23T02:01:49.613Z,8.56
2024-03-23T02:02:49.590Z,8.56
2024-03-23T02:03:50.775Z,8.60
2024-03-23T02:04:49.574Z,8.67
2024-03-23T02:06:49.554Z,8.66
2024-03-23T02:07:49.540Z,8.64
2024-03-23T02:08:49.520Z,8.61
2024-03-23T02:09:49.518Z,8.61
2024-03-23T02:10:49.553Z,8.61
2024-03-23T02:11:49.910Z,8.66
2024-03-23T02:12:49.481Z,8.66
2024-03-23T02:14:49.478Z,8.70
2024-03-23T02:15:49.449Z,8.64
2024-03-23T02:16:49.440Z,8.60
2024-03-23T02:17:49.423Z,8.58
2024-03-23T02:18:49.410Z,8.46
2024-03-23T02:19:49.404Z,8.46
2024-03-23T02:20:49.395Z,8.60
2024-03-23T02:21:49.379Z,8.48
2024-03-23T02:22:49.364Z,8.46
2024-03-23T02:23:49.355Z,8.38
2024-03-23T02:24:49.342Z,8.37
2024-03-23T02:25:49.344Z,8.36
2024-03-23T02:26:49.333Z,8.37
2024-03-23T02:28:49.298Z,8.33
2024-03-23T02:29:49.288Z,8.38
2024-03-23T02:30:49.293Z,8.38
2024-03-23T02:31:49.263Z,8.27
2024-03-23T02:32:49.260Z,8.28
2024-03-23T02:33:49.252Z,8.28
2024-03-23T02:34:49.232Z,8.23
2024-03-23T02:35:49.219Z,8.30
2024-03-23T02:36:49.208Z,8.20
2024-03-23T02:37:49.198Z,8.27
2024-03-23T02:38:49.188Z,8.13
2024-03-23T02:39:49.182Z,8.05
2024-03-23T02:40:49.163Z,7.98
2024-03-23T02:41:49.149Z,7.93
2024-03-23T02:42:49.148Z,7.95
2024-03-23T02:43:49.139Z,7.88
2024-03-23T02:44:50.980Z,7.76
2024-03-23T02:45:49.112Z,7.77
2024-03-23T02:46:49.109Z,7.76
2024-03-23T02:47:49.088Z,7.85
2024-03-23T02:48:49.070Z,7.80
2024-03-23T02:49:49.061Z,7.88
2024-03-23T02:50:49.080Z,7.88
2024-03-23T02:51:49.039Z,7.79
2024-03-23T02:52:49.027Z,7.91
2024-03-23T02:53:49.012Z,7.87
2024-03-23T02:54:49.004Z,7.91
2024-03-23T02:55:49.041Z,7.98
2024-03-23T02:56:48.983Z,7.95
2024-03-23T02:57:48.969Z,8.01
2024-03-23T02:58:48.953Z,7.94
2024-03-23T02:59:48.947Z,8.00
2024-03-23T03:00:48.949Z,8.08
2024-03-23T03:01:48.929Z,8.12
2024-03-23T03:02:48.928Z,8.06
2024-03-23T03:03:48.905Z,8.27
2024-03-23T03:04:48.892Z,8.24
2024-03-23T03:05:48.880Z,8.30
2024-03-23T03:06:48.878Z,8.30
2024-03-23T03:07:48.858Z,8.37
2024-03-23T03:08:48.843Z,8.46
2024-03-23T03:09:48.832Z,8.46
2024-03-23T03:11:48.862Z,8.48
2024-03-23T03:12:48.799Z,8.46
2024-03-23T03:13:48.781Z,8.48
2024-03-23T03:14:48.781Z,8.56
2024-03-23T03:15:48.762Z,8.53
2024-03-23T03:16:48.762Z,8.60
2024-03-23T03:17:48.742Z,8.58
2024-03-23T03:18:48.735Z,8.56
2024-03-23T03:19:48.722Z,8.49
2024-03-23T03:20:48.706Z,8.56
2024-03-23T03:21:48.696Z,8.56
2024-03-23T03:22:48.687Z,8.61
2024-03-23T03:24:48.657Z,8.56
2024-03-23T03:25:48.652Z,8.58
2024-03-23T03:26:48.639Z,8.60
2024-03-23T03:27:48.628Z,8.64
2024-03-23T03:28:48.623Z,8.60
2024-03-23T03:29:48.607Z,8.64
2024-03-23T03:30:48.589Z,8.64
2024-03-23T03:31:48.579Z,8.66
2024-03-23T03:32:48.565Z,8.64
2024-03-23T03:33:48.565Z,8.64
2024-03-23T03:34:48.557Z,8.64
2024-03-23T03:35:48.536Z,8.61
2024-03-23T03:36:48.525Z,8.71
2024-03-23T03:37:48.510Z,8.78
2024-03-23T03:38:48.511Z,8.71
2024-03-23T03:39:48.489Z,8.78
2024-03-23T03:40:48.473Z,8.79
2024-03-23T03:41:48.518Z,8.84
2024-03-23T03:42:48.456Z,8.73
2024-03-23T03:44:48.437Z,8.78
2024-03-23T03:45:48.429Z,8.73
2024-03-23T03:46:48.416Z,8.74
2024-03-23T03:47:48.445Z,8.74
2024-03-23T03:48:48.388Z,8.76
2024-03-23T03:49:48.374Z,8.73
2024-03-23T03:50:48.387Z,8.76
2024-03-23T03:51:48.355Z,8.73
2024-03-23T03:52:48.340Z,8.73
2024-03-23T03:53:48.339Z,8.76
2024-03-23T03:54:51.798Z,8.67
2024-03-23T03:55:48.309Z,8.76
2024-03-23T03:56:48.303Z,8.64
2024-03-23T03:57:48.292Z,8.73
2024-03-23T03:58:48.271Z,8.73
2024-03-23T03:59:48.274Z,8.63
2024-03-23T04:00:48.266Z,8.67
2024-03-23T04:01:48.241Z,8.79
2024-03-23T04:02:48.227Z,8.76
2024-03-23T04:03:48.221Z,8.73
2024-03-23T04:04:48.202Z,8.78
2024-03-23T04:05:48.207Z,8.78
2024-03-23T04:06:48.210Z,8.81
2024-03-23T04:07:48.175Z,8.76
2024-03-23T04:08:48.169Z,8.79
2024-03-23T04:09:48.253Z,8.79
2024-03-23T04:10:48.292Z,8.82
2024-03-23T04:11:48.126Z,8.82
2024-03-23T04:12:48.127Z,8.73
2024-03-23T04:13:48.109Z,8.85
2024-03-23T04:14:48.094Z,8.87
2024-03-23T04:15:48.176Z,8.87
2024-03-23T04:16:48.078Z,8.87
2024-03-23T04:17:48.062Z,8.91
2024-03-23T04:18:48.051Z,8.76
2024-03-23T04:19:48.043Z,8.85
2024-03-23T04:20:48.037Z,8.87
2024-03-23T04:21:48.026Z,8.91
2024-03-23T04:22:48.011Z,8.79
2024-03-23T04:23:47.996Z,8.78
2024-03-23T04:24:47.985Z,8.69
2024-03-23T04:25:47.973Z,8.79
2024-03-23T04:26:47.965Z,8.73
2024-03-23T04:27:47.949Z,8.78
2024-03-23T04:28:47.933Z,8.79
2024-03-23T04:29:47.929Z,8.84
2024-03-23T04:30:47.955Z,8.73
2024-03-23T04:31:47.909Z,8.84
2024-03-23T04:32:47.893Z,8.85
2024-03-23T04:33:47.887Z,8.74
2024-03-23T04:34:47.869Z,8.74
2024-03-23T04:35:47.875Z,8.74
2024-03-23T04:36:47.860Z,8.69
2024-03-23T04:37:47.850Z,8.73
2024-03-23T04:38:47.832Z,8.70
2024-03-23T04:39:47.819Z,8.74
2024-03-23T04:40:47.803Z,8.69
2024-03-23T04:42:47.781Z,8.69
2024-03-23T04:43:49.828Z,8.73
2024-03-23T04:44:47.754Z,8.84
2024-03-23T04:46:47.755Z,8.81
2024-03-23T04:47:47.726Z,8.73
2024-03-23T04:48:47.714Z,8.71
2024-03-23T04:49:47.701Z,8.79
2024-03-23T04:50:47.689Z,8.76
2024-03-23T04:51:47.689Z,8.79
2024-03-23T04:52:47.669Z,8.84
2024-03-23T04:53:47.663Z,8.88
2024-03-23T04:54:47.661Z,8.87
2024-03-23T04:55:47.634Z,8.94
2024-03-23T04:56:47.630Z,8.88
2024-03-23T04:57:47.617Z,8.88
2024-03-23T04:59:47.592Z,8.82
2024-03-23T05:00:47.589Z,8.76
2024-03-23T05:02:47.554Z,8.82
2024-03-23T05:03:47.549Z,8.85
2024-03-23T05:04:47.537Z,8.81
2024-03-23T05:05:47.533Z,8.76
2024-03-23T05:06:47.513Z,8.78
2024-03-23T05:07:47.510Z,8.85
2024-03-23T05:08:47.492Z,8.81
2024-03-23T05:09:47.479Z,8.81
2024-03-23T05:10:47.477Z,8.82
2024-03-23T05:11:47.460Z,8.79
2024-03-23T05:12:47.441Z,8.73
2024-03-23T05:13:47.435Z,8.73
2024-03-23T05:14:47.423Z,8.74
2024-03-23T05:15:50.896Z,8.78
2024-03-23T05:16:47.395Z,8.73
2024-03-23T05:17:47.390Z,8.84
2024-03-23T05:18:47.375Z,8.78
2024-03-23T05:19:47.369Z,8.79
2024-03-23T05:20:47.359Z,8.81
2024-03-23T05:22:47.336Z,8.84
2024-03-23T05:23:47.314Z,8.79
2024-03-23T05:24:47.311Z,8.79
2024-03-23T05:25:47.299Z,8.76
2024-03-23T05:26:47.296Z,8.78
2024-03-23T05:28:47.267Z,8.76
2024-03-23T05:29:47.253Z,8.78
2024-03-23T05:30:47.239Z,8.81
2024-03-23T05:31:47.234Z,8.78
2024-03-23T05:32:47.215Z,8.81
2024-03-23T05:33:47.220Z,8.79
2024-03-23T05:34:47.197Z,8.81
2024-03-23T05:35:47.188Z,8.84
2024-03-23T05:37:47.163Z,8.81
2024-03-23T05:38:47.155Z,8.84
2024-03-23T05:39:47.152Z,8.81
2024-03-23T05:40:47.133Z,8.78
2024-03-23T05:41:47.118Z,8.73
2024-03-23T05:42:47.117Z,8.91
2024-03-23T05:43:47.103Z,8.84
2024-03-23T05:44:47.101Z,8.78
2024-03-23T05:45:47.072Z,8.81
2024-03-23T05:46:47.065Z,8.76
2024-03-23T05:47:47.068Z,8.84
2024-03-23T05:48:47.033Z,8.88
2024-03-23T05:49:47.027Z,8.79
2024-03-23T05:51:47.012Z,8.81
2024-03-23T05:52:46.995Z,8.81
2024-03-23T05:53:47.016Z,8.78
2024-03-23T05:54:46.979Z,8.79
2024-03-23T05:55:46.967Z,8.88
2024-03-23T05:56:46.969Z,8.82
2024-03-23T05:58:46.942Z,8.79
2024-03-23T05:59:46.919Z,8.85
2024-03-23T06:00:46.903Z,8.79
2024-03-23T06:01:46.897Z,8.78
2024-03-23T06:02:46.883Z,8.76
2024-03-23T06:03:46.867Z,8.76
2024-03-23T06:04:46.863Z,8.81
2024-03-23T06:05:46.847Z,8.76
2024-03-23T06:06:46.836Z,8.78
2024-03-23T06:07:46.878Z,8.74
2024-03-23T06:08:46.810Z,8.79
2024-03-23T06:09:46.793Z,8.81
2024-03-23T06:10:46.792Z,8.79
2024-03-23T06:11:46.778Z,8.76
2024-03-23T06:12:46.782Z,8.82
2024-03-23T06:13:46.776Z,8.73
2024-03-23T06:14:46.781Z,8.82
2024-03-23T06:15:46.730Z,8.73
2024-03-23T06:16:46.721Z,8.81
2024-03-23T06:17:46.706Z,8.78
2024-03-23T06:19:46.683Z,8.84
2024-03-23T06:20:46.685Z,8.84
2024-03-23T06:21:46.660Z,8.78
2024-03-23T06:22:46.648Z,8.84
2024-03-23T06:23:46.642Z,8.88
2024-03-23T06:24:46.631Z,8.91
2024-03-23T06:25:46.619Z,8.97
2024-03-23T06:26:46.615Z,8.95
2024-03-23T06:27:46.594Z,8.91
2024-03-23T06:28:46.578Z,8.92
2024-03-23T06:29:46.572Z,8.95
2024-03-23T06:30:46.580Z,8.95
2024-03-23T06:31:46.548Z,8.97
2024-03-23T06:32:46.541Z,8.99
2024-03-23T06:33:46.530Z,9.02
2024-03-23T06:34:46.516Z,9.08
2024-03-23T06:35:46.505Z,9.02
2024-03-23T06:36:46.517Z,9.02
2024-03-23T06:38:46.465Z,9.04
2024-03-23T06:39:46.463Z,9.04
2024-03-23T06:40:46.455Z,9.08
2024-03-23T06:41:46.437Z,9.10
2024-03-23T06:42:46.432Z,8.97
2024-03-23T06:43:47.999Z,9.08
2024-03-23T06:44:46.403Z,9.04
2024-03-23T06:45:46.392Z,9.08
2024-03-23T06:46:46.398Z,9.10
2024-03-23T06:48:46.358Z,9.06
2024-03-23T06:49:46.361Z,9.18
2024-03-23T06:50:46.346Z,9.04
2024-03-23T06:51:46.324Z,9.18
2024-03-23T06:52:46.322Z,9.19
2024-03-23T06:53:46.307Z,9.14
2024-03-23T06:55:46.279Z,9.26
2024-03-23T06:56:46.266Z,9.34
2024-03-23T06:57:46.272Z,9.44
2024-03-23T06:58:46.241Z,9.50
2024-03-23T06:59:46.240Z,9.54
2024-03-23T07:00:46.226Z,9.66
2024-03-23T07:01:46.210Z,9.62
2024-03-23T07:02:46.217Z,9.68
2024-03-23T07:03:46.202Z,9.66
2024-03-23T07:04:46.186Z,9.65
2024-03-23T07:05:46.164Z,9.64
2024-03-23T07:06:46.171Z,9.59
2024-03-23T07:07:46.144Z,9.64
2024-03-23T07:08:46.129Z,9.59
2024-03-23T07:09:46.119Z,9.62
2024-03-23T07:10:46.112Z,9.62
2024-03-23T07:11:46.094Z,9.59
2024-03-23T07:12:46.091Z,9.58
2024-03-23T07:13:46.128Z,9.64
2024-03-23T07:14:46.067Z,9.61
2024-03-23T07:15:46.057Z,9.61
2024-03-23T07:16:46.063Z,9.56
2024-03-23T07:17:46.069Z,9.61
2024-03-23T07:18:46.033Z,9.47
2024-03-23T07:19:46.046Z,9.39
2024-03-23T07:20:46.038Z,9.23
2024-03-23T07:21:48.694Z,9.18
2024-03-23T07:22:45.999Z,9.04
2024-03-23T07:23:46.000Z,9.10
2024-03-23T07:24:45.967Z,8.89
2024-03-23T07:25:45.946Z,8.78
2024-03-23T07:26:45.934Z,8.66
2024-03-23T07:27:45.987Z,8.64
2024-03-23T07:28:45.922Z,8.49
2024-03-23T07:29:45.898Z,8.48
2024-03-23T07:30:45.940Z,8.45
2024-03-23T07:31:45.907Z,8.42
2024-03-23T07:32:45.944Z,8.20
2024-03-23T07:33:45.947Z,8.19
2024-03-23T07:34:45.920Z,8.18
2024-03-23T07:36:45.814Z,7.88
2024-03-23T07:37:45.814Z,7.79
2024-03-23T07:38:49.056Z,7.66
2024-03-23T07:39:45.791Z,7.50
2024-03-23T07:40:45.795Z,7.40
2024-03-23T07:41:45.814Z,7.42
2024-03-23T07:43:45.739Z,7.38
2024-03-23T07:44:45.725Z,7.35
2024-03-23T07:45:45.713Z,7.32
2024-03-23T07:46:45.707Z,7.32
2024-03-23T07:47:45.685Z,7.23
2024-03-23T07:48:45.682Z,7.20
2024-03-23T07:49:45.666Z,7.03
2024-03-23T07:50:45.673Z,7.00
2024-03-23T07:51:45.644Z,7.03
2024-03-23T07:52:45.625Z,6.93
2024-03-23T07:53:45.625Z,6.81
2024-03-23T07:54:45.605Z,6.85
2024-03-23T07:55:45.589Z,6.88
2024-03-23T07:56:45.588Z,6.87
2024-03-23T07:57:45.568Z,6.85
2024-03-23T07:58:45.553Z,6.92
2024-03-23T07:59:45.539Z,6.82
2024-03-23T08:00:45.535Z,6.75
2024-03-23T08:01:45.534Z,6.75
2024-03-23T08:02:47.160Z,6.78
2024-03-23T08:03:45.558Z,6.66
2024-03-23T08:04:45.479Z,6.66
2024-03-23T08:05:45.516Z,6.62
2024-03-23T08:06:47.259Z,6.59
2024-03-23T08:07:45.447Z,6.56
2024-03-23T08:08:45.479Z,6.52
2024-03-23T08:09:45.425Z,6.46
2024-03-23T08:10:45.563Z,6.42
2024-03-23T08:11:45.397Z,6.38
2024-03-23T08:12:45.631Z,6.44
2024-03-23T08:13:45.378Z,6.41
2024-03-23T08:14:45.354Z,6.33
2024-03-23T08:15:45.344Z,6.36
2024-03-23T08:16:45.325Z,6.36
2024-03-23T08:17:45.381Z,6.27
2024-03-23T08:18:45.307Z,6.33
2024-03-23T08:19:45.349Z,6.30
2024-03-23T08:20:45.281Z,6.35
2024-03-23T08:21:45.271Z,6.31
2024-03-23T08:22:45.266Z,6.38
2024-03-23T08:23:45.242Z,6.30
2024-03-23T08:24:45.229Z,6.38
2024-03-23T08:25:45.223Z,6.33
2024-03-23T08:26:45.206Z,6.24
2024-03-23T08:27:45.198Z,6.35
2024-03-23T08:28:45.167Z,6.24
2024-03-23T08:29:45.161Z,6.28
2024-03-23T08:30:45.151Z,6.35
2024-03-23T08:31:45.154Z,6.31
2024-03-23T08:32:45.123Z,6.31
2024-03-23T08:33:45.116Z,6.39
2024-03-23T08:34:45.100Z,6.38
2024-03-23T08:35:45.084Z,6.44
2024-03-23T08:36:45.078Z,6.35
2024-03-23T08:37:45.062Z,6.30
2024-03-23T08:38:45.060Z,6.45
2024-03-23T08:39:45.036Z,6.49
2024-03-23T08:40:45.028Z,6.39
2024-03-23T08:41:45.011Z,6.51
2024-03-23T08:42:45.011Z,6.41
2024-03-23T08:43:44.994Z,6.39
2024-03-23T08:44:44.964Z,6.42
2024-03-23T08:45:44.957Z,6.52
2024-03-23T08:46:45.007Z,6.41
2024-03-23T08:47:44.939Z,6.45
2024-03-23T08:48:44.920Z,6.33
2024-03-23T08:49:44.914Z,6.28
2024-03-23T08:50:44.897Z,6.30
2024-03-23T08:51:44.884Z,6.22
2024-03-23T08:52:44.875Z,6.28
2024-03-23T08:53:44.862Z,6.22
2024-03-23T08:54:44.865Z,6.08
2024-03-23T08:55:44.841Z,6.09
2024-03-23T08:56:44.814Z,6.01
2024-03-23T08:57:44.817Z,6.05
2024-03-23T08:58:44.796Z,5.97
2024-03-23T08:59:44.785Z,6.02
2024-03-23T09:00:44.770Z,6.07
2024-03-23T09:01:44.755Z,6.07
2024-03-23T09:02:44.737Z,6.22
2024-03-23T09:03:44.778Z,6.20
2024-03-23T09:04:44.772Z,6.08
2024-03-23T09:05:44.700Z,6.01
2024-03-23T09:06:44.701Z,6.04
2024-03-23T09:07:44.684Z,6.16
2024-03-23T09:08:44.671Z,6.20
2024-03-23T09:09:44.658Z,6.22
2024-03-23T09:10:44.661Z,6.30
2024-03-23T09:11:44.643Z,6.28
2024-03-23T09:12:44.616Z,6.19
2024-03-23T09:13:44.629Z,6.07
2024-03-23T09:14:44.591Z,6.14
2024-03-23T09:15:44.585Z,6.24
2024-03-23T09:16:47.189Z,6.14
2024-03-23T09:17:44.563Z,6.08
2024-03-23T09:18:44.536Z,6.16
2024-03-23T09:19:44.577Z,6.14
2024-03-23T09:20:44.510Z,6.12
2024-03-23T09:21:44.498Z,6.07
2024-03-23T09:22:44.485Z,5.97
2024-03-23T09:23:44.478Z,6.11
2024-03-23T09:24:44.456Z,6.14
2024-03-23T09:25:45.966Z,6.14
2024-03-23T09:26:44.457Z,6.16
2024-03-23T09:27:44.420Z,6.19
2024-03-23T09:28:44.406Z,6.05
2024-03-23T09:30:44.379Z,6.02
2024-03-23T09:31:44.367Z,5.84
2024-03-23T09:33:44.345Z,5.98
2024-03-23T09:34:44.331Z,6.05
2024-03-23T09:35:44.317Z,6.09
2024-03-23T09:36:44.310Z,6.14
2024-03-23T09:37:44.295Z,6.05
2024-03-23T09:38:44.277Z,6.20
2024-03-23T09:39:44.268Z,6.26
2024-03-23T09:40:44.249Z,6.22
2024-03-23T09:41:44.245Z,6.22
2024-03-23T09:42:44.249Z,6.19
2024-03-23T09:43:44.219Z,6.27
2024-03-23T09:44:44.206Z,6.28
2024-03-23T09:46:44.177Z,6.31
2024-03-23T09:48:44.182Z,6.45
2024-03-23T09:49:44.146Z,6.46
2024-03-23T09:50:44.149Z,6.52
2024-03-23T09:51:44.115Z,6.51
2024-03-23T09:52:44.096Z,6.52
2024-03-23T09:53:44.087Z,6.52
2024-03-23T09:54:44.069Z,6.54
2024-03-23T09:55:44.116Z,6.56
2024-03-23T09:56:44.854Z,6.54
2024-03-23T09:57:44.138Z,6.54
2024-03-23T09:58:44.057Z,6.63
2024-03-23T09:59:44.007Z,6.66
2024-03-23T10:00:44.029Z,6.74
2024-03-23T10:01:44.123Z,6.79
2024-03-23T10:02:44.046Z,6.82
2024-03-23T10:03:43.966Z,6.81
2024-03-23T10:04:43.955Z,6.84
2024-03-23T10:05:47.536Z,6.93
2024-03-23T10:06:43.926Z,6.96
2024-03-23T10:07:43.909Z,6.84
2024-03-23T10:08:43.902Z,6.62
2024-03-23T10:09:43.888Z,6.56
2024-03-23T10:10:43.885Z,6.42
2024-03-23T10:11:43.856Z,6.57
2024-03-23T10:12:43.846Z,6.60
2024-03-23T10:13:43.839Z,6.74
2024-03-23T10:14:43.843Z,6.81
2024-03-23T10:15:43.821Z,6.84
2024-03-23T10:16:43.802Z,6.97
2024-03-23T10:17:43.783Z,7.14
2024-03-23T10:18:43.794Z,7.31
2024-03-23T10:19:43.762Z,7.11
2024-03-23T10:20:43.748Z,6.96
2024-03-23T10:21:43.767Z,7.03
2024-03-23T10:22:43.728Z,7.06
2024-03-23T10:23:43.711Z,7.20
2024-03-23T10:24:43.697Z,7.35
2024-03-23T10:25:43.688Z,7.45
2024-03-23T10:26:43.678Z,7.48
2024-03-23T10:27:43.700Z,7.47
2024-03-23T10:28:43.651Z,7.47
2024-03-23T10:29:43.644Z,7.48
2024-03-23T10:30:43.672Z,7.58
2024-03-23T10:31:43.612Z,7.61
2024-03-23T10:32:43.613Z,7.58
2024-03-23T10:33:43.633Z,7.63
2024-03-23T10:34:43.573Z,7.80
2024-03-23T10:35:43.566Z,8.10
2024-03-23T10:36:43.607Z,8.41
2024-03-23T10:37:43.547Z,8.52
2024-03-23T10:38:43.550Z,8.97
2024-03-23T10:39:43.544Z,9.02
2024-03-23T10:40:43.507Z,9.19
2024-03-23T10:41:43.497Z,9.26
2024-03-23T10:43:43.471Z,9.47
2024-03-23T10:44:43.459Z,9.59
2024-03-23T10:45:43.476Z,9.61
2024-03-23T10:46:43.457Z,9.80
2024-03-23T10:47:43.447Z,9.74
2024-03-23T10:48:43.411Z,9.94
2024-03-23T10:50:43.395Z,10.19
2024-03-23T10:51:43.408Z,10.19
2024-03-23T10:52:43.377Z,10.05
2024-03-23T10:53:43.362Z,10.04
2024-03-23T10:54:43.459Z,9.86
2024-03-23T10:55:43.342Z,9.99
2024-03-23T10:56:43.336Z,9.83
2024-03-23T10:57:43.463Z,9.29
2024-03-23T10:58:43.363Z,9.22
2024-03-23T10:59:43.300Z,9.18
2024-03-23T11:00:43.336Z,9.26
2024-03-23T11:01:44.006Z,9.08
2024-03-23T11:02:43.306Z,9.08
2024-03-23T11:03:43.309Z,9.03
2024-03-23T11:04:43.242Z,9.08
2024-03-23T11:05:43.231Z,9.26
2024-03-23T11:06:43.262Z,9.40
2024-03-23T11:07:43.764Z,9.59
2024-03-23T11:08:43.219Z,9.59
2024-03-23T11:09:43.294Z,9.61
2024-03-23T11:10:43.194Z,9.94
2024-03-23T11:11:43.179Z,9.97
2024-03-23T11:12:43.199Z,10.12
2024-03-23T11:13:43.692Z,10.13
2024-03-23T11:14:43.145Z,10.33
2024-03-23T11:15:43.170Z,10.28
2024-03-23T11:16:43.123Z,10.35
2024-03-23T11:17:43.110Z,10.42
2024-03-23T11:18:43.141Z,10.44
2024-03-23T11:19:43.092Z,10.38
2024-03-23T11:20:43.081Z,10.60
2024-03-23T11:21:43.106Z,10.79
2024-03-23T11:22:43.064Z,11.02
2024-03-23T11:23:43.047Z,11.19
2024-03-23T11:25:43.030Z,11.45
2024-03-23T11:26:43.033Z,11.57
2024-03-23T11:27:43.038Z,11.40
2024-03-23T11:28:43.003Z,11.43
2024-03-23T11:29:42.989Z,11.29
2024-03-23T11:30:43.005Z,11.44
2024-03-23T11:31:42.975Z,11.25
2024-03-23T11:32:42.968Z,11.27
2024-03-23T11:33:42.962Z,11.17
2024-03-23T11:34:42.953Z,11.17
2024-03-23T11:35:42.926Z,11.36
2024-03-23T11:36:42.936Z,11.54
2024-03-23T11:37:42.913Z,11.43
2024-03-23T11:38:42.904Z,11.50
2024-03-23T11:39:42.912Z,11.43
2024-03-23T11:40:42.893Z,11.30
2024-03-23T11:41:42.871Z,11.41
2024-03-23T11:42:42.884Z,11.33
2024-03-23T11:43:42.858Z,10.97
2024-03-23T11:44:42.849Z,10.34
2024-03-23T11:45:42.924Z,10.17
2024-03-23T11:46:42.829Z,10.04
2024-03-23T11:47:42.816Z,9.77
2024-03-23T11:48:42.815Z,9.69
2024-03-23T11:49:42.794Z,9.69
2024-03-23T11:50:42.800Z,9.58
2024-03-23T11:51:42.784Z,9.41
2024-03-23T11:52:42.765Z,9.31
2024-03-23T11:53:42.754Z,9.03
2024-03-23T11:54:42.766Z,9.16
2024-03-23T11:55:42.743Z,9.21
2024-03-23T11:56:42.731Z,9.23
2024-03-23T11:57:42.745Z,9.36
2024-03-23T11:58:42.702Z,9.56
2024-03-23T11:59:42.700Z,9.58
2024-03-23T12:00:42.705Z,9.62
2024-03-23T12:01:42.690Z,9.80
2024-03-23T12:02:42.665Z,9.84
2024-03-23T12:03:42.664Z,9.82
2024-03-23T12:04:42.644Z,9.97
2024-03-23T12:05:42.633Z,9.86
2024-03-23T12:06:42.656Z,9.97
2024-03-23T12:07:42.608Z,9.80
2024-03-23T12:08:42.606Z,9.59
2024-03-23T12:09:42.594Z,9.61
2024-03-23T12:10:42.606Z,9.58
2024-03-23T12:11:42.570Z,9.69
2024-03-23T12:12:42.568Z,9.77
2024-03-23T12:14:45.574Z,9.61
2024-03-23T12:15:42.562Z,9.54
2024-03-23T12:16:42.521Z,9.54
2024-03-23T12:17:42.511Z,9.44
2024-03-23T12:18:42.509Z,9.46
2024-03-23T12:19:42.483Z,9.34
2024-03-23T12:20:44.287Z,9.37
2024-03-23T12:21:42.480Z,9.36
2024-03-23T12:22:42.469Z,9.40
2024-03-23T12:23:42.439Z,9.32
2024-03-23T12:24:42.451Z,9.46
2024-03-23T12:25:42.425Z,9.36
2024-03-23T12:26:44.844Z,9.41
2024-03-23T12:27:42.427Z,9.54
2024-03-23T12:28:42.395Z,9.58
2024-03-23T12:29:42.384Z,9.77
2024-03-23T12:30:42.420Z,9.97
2024-03-23T12:31:42.357Z,10.01
2024-03-23T12:32:42.344Z,10.13
2024-03-23T12:33:42.337Z,10.20
2024-03-23T12:34:42.341Z,9.97
2024-03-23T12:35:42.315Z,9.97
2024-03-23T12:36:42.306Z,9.94
2024-03-23T12:37:42.290Z,9.91
2024-03-23T12:38:42.289Z,10.12
2024-03-23T12:39:42.271Z,10.02
2024-03-23T12:40:42.260Z,10.12
2024-03-23T12:41:42.252Z,10.13
2024-03-23T12:42:42.242Z,10.17
2024-03-23T12:43:42.229Z,10.20
2024-03-23T12:44:42.250Z,10.22
2024-03-23T12:45:42.235Z,10.33
2024-03-23T12:46:42.209Z,10.31
2024-03-23T12:47:42.183Z,10.40
2024-03-23T12:48:42.188Z,10.44
2024-03-23T12:49:42.163Z,10.57
2024-03-23T12:50:42.152Z,10.46
2024-03-23T12:51:42.148Z,10.34
2024-03-23T12:52:42.135Z,10.41
2024-03-23T12:53:42.119Z,10.57
2024-03-23T12:54:42.138Z,10.71
2024-03-23T12:55:42.094Z,10.75
2024-03-23T12:56:42.097Z,10.78
2024-03-23T12:57:42.078Z,10.68
2024-03-23T12:58:42.075Z,10.61
2024-03-23T12:59:42.057Z,10.61
2024-03-23T13:00:42.068Z,10.75
2024-03-23T13:02:42.027Z,10.79
2024-03-23T13:03:42.019Z,10.90
2024-03-23T13:04:42.013Z,10.90
2024-03-23T13:05:41.997Z,10.94
2024-03-23T13:06:41.993Z,11.12
2024-03-23T13:08:41.966Z,11.23
2024-03-23T13:09:41.956Z,11.00
2024-03-23T13:10:41.983Z,11.11
2024-03-23T13:11:41.934Z,11.05
2024-03-23T13:12:41.935Z,10.68
2024-03-23T13:13:41.912Z,10.69
2024-03-23T13:15:41.998Z,10.59
2024-03-23T13:16:41.875Z,10.56
2024-03-23T13:17:41.868Z,10.46
2024-03-23T13:18:41.893Z,10.38
2024-03-23T13:19:41.849Z,10.35
2024-03-23T13:20:41.883Z,10.30
2024-03-23T13:21:41.835Z,10.34
2024-03-23T13:22:41.820Z,10.42
2024-03-23T13:23:41.811Z,10.60
2024-03-23T13:24:41.859Z,10.67
2024-03-23T13:25:41.809Z,10.75
2024-03-23T13:26:41.799Z,10.46
2024-03-23T13:27:41.776Z,10.41
2024-03-23T13:28:41.754Z,10.41
2024-03-23T13:29:41.747Z,10.38
2024-03-23T13:31:41.732Z,10.48
2024-03-23T13:32:41.719Z,10.63
2024-03-23T13:33:41.721Z,10.63
2024-03-23T13:34:41.690Z,10.82
2024-03-23T13:35:41.682Z,10.94
2024-03-23T13:36:41.716Z,11.02
2024-03-23T13:37:41.657Z,11.26
2024-03-23T13:38:41.655Z,11.35
2024-03-23T13:39:41.646Z,11.47
2024-03-23T13:40:41.637Z,11.41
2024-03-23T13:42:41.632Z,11.15
2024-03-23T13:43:41.596Z,11.10
2024-03-23T13:44:41.588Z,11.12
2024-03-23T13:45:41.589Z,11.11
2024-03-23T13:46:41.572Z,11.08
2024-03-23T13:47:41.558Z,11.00
2024-03-23T13:49:41.539Z,11.19
2024-03-23T13:50:41.527Z,11.27
2024-03-23T13:51:41.520Z,11.45
2024-03-23T13:52:44.896Z,11.50
2024-03-23T13:53:41.499Z,11.50
2024-03-23T13:54:41.486Z,11.52
2024-03-23T13:55:41.472Z,11.62
2024-03-23T13:56:41.476Z,11.77